This is the latest recevied weather packets stored in our database for station/object DL7KST-13. If no packets are shown the sender has not sent any weather packets the latest 10 day(s).
| Time | Temp. | Humidity | Pressure | Rain* | Wind** | Luminosity | Snow |
|---|---|---|---|---|---|---|---|
| 1777915118 | 19.44° C | 57% | 1002.2 hPa | 0 mm | 0 m/s | - | - |
| 1777913914 | 20° C | 52% | 1001.9 hPa | 0 mm | 0 m/s | - | - |
| 1777912709 | 21.11° C | 48% | 1001.8 hPa | 0 mm | 0 m/s | - | - |
| 1777911504 | 21.11° C | 47% | 1001.9 hPa | 0 mm | 0 m/s | - | - |
| 1777910299 | 21.67° C | 48% | 1002 hPa | 0 mm | 0 m/s | - | - |
| 1777909097 | 21.11° C | 47% | 1001.9 hPa | 0 mm | 0.45 m/s, 332° | - | - |
| 1777907890 | 21.11° C | 48% | 1002.1 hPa | 0 mm | 0 m/s | - | - |
| 1777906684 | 20.56° C | 52% | 1002.3 hPa | 0 mm | 0 m/s | - | - |
| 1777905479 | 21.67° C | 50% | 1002.3 hPa | 0 mm | 0.45 m/s, 274° | - | - |
| 1777904275 | 21.11° C | 51% | 1002.6 hPa | 0 mm | 0.45 m/s, 281° | - | - |
| 1777903069 | 21.11° C | 50% | 1002.6 hPa | 0 mm | 0.45 m/s, 268° | - | - |
| 1777901863 | 21.11° C | 51% | 1002.7 hPa | 0 mm | 0.89 m/s, 59° | - | - |
| 1777900658 | 20.56° C | 50% | 1002.5 hPa | 0 mm | 0 m/s | - | - |
| 1777899453 | 20.56° C | 52% | 1002.5 hPa | 0 mm | 0 m/s | - | - |
| 1777898248 | 21.11° C | 51% | 1002.6 hPa | 0 mm | 0.89 m/s, 308° | - | - |
| 1777897078 | 21.11° C | 49% | 1002.7 hPa | 0 mm | 0 m/s | - | - |
| 1777897044 | 21.11° C | 49% | 1002.7 hPa | 0 mm | 0 m/s | - | - |
| 1777895878 | 20.56° C | 50% | 1002.6 hPa | 0 mm | 0.45 m/s, 302° | - | - |
| 1777895839 | 20.56° C | 50% | 1002.6 hPa | 0 mm | 0.45 m/s, 302° | - | - |
| 1777894634 | 21.67° C | 46% | 1002.7 hPa | 0 mm | 1.34 m/s, 282° | - | - |
| 1777893429 | 20.56° C | 48% | 1002.8 hPa | 0 mm | 1.79 m/s, 288° | - | - |
| 1777892224 | 20° C | 50% | 1003 hPa | 0 mm | 0.45 m/s, 326° | - | - |
| 1777891018 | 20° C | 50% | 1003.1 hPa | 0 mm | 0.45 m/s, 291° | - | - |
| 1777889814 | 19.44° C | 52% | 1003.1 hPa | 0 mm | 0.45 m/s, 293° | - | - |
| 1777888609 | 20.56° C | 51% | 1003.4 hPa | 0 mm | 1.34 m/s, 301° | - | - |
* Rain latest hour (hover to see other rain measurements)
** Current wind speed in m/s (hover to see current wind gust speed)